createdAt,value
2019-01-23T00:00:58.243Z,43.70
2019-01-23T00:03:25.783Z,45.00
2019-01-23T00:05:53.301Z,44.53
2019-01-23T00:08:20.814Z,43.20
2019-01-23T00:10:48.464Z,44.03
2019-01-23T00:13:16.080Z,45.40
2019-01-23T00:15:43.622Z,45.78
2019-01-23T00:18:11.134Z,41.40
2019-01-23T00:20:38.681Z,43.02
2019-01-23T00:23:06.201Z,44.77
2019-01-23T00:25:33.869Z,43.68
2019-01-23T00:28:01.351Z,40.33
2019-01-23T00:30:28.913Z,42.35
2019-01-23T00:32:56.521Z,42.60
2019-01-23T00:35:24.016Z,41.23
2019-01-23T00:37:51.515Z,41.50
2019-01-23T00:40:19.121Z,42.98
2019-01-23T00:42:46.699Z,43.23
2019-01-23T00:45:15.040Z,42.65
2019-01-23T00:47:42.589Z,44.38
2019-01-23T00:50:10.553Z,42.88
2019-01-23T00:52:38.057Z,43.02
2019-01-23T00:55:07.336Z,43.73
2019-01-23T00:57:34.968Z,42.55
2019-01-23T01:00:02.560Z,40.85
2019-01-23T01:02:30.033Z,41.65
2019-01-23T01:04:57.591Z,42.03
2019-01-23T01:07:25.280Z,41.00
2019-01-23T01:09:52.790Z,39.53
2019-01-23T01:12:20.386Z,37.55
2019-01-23T01:14:47.848Z,37.63
2019-01-23T01:17:15.371Z,38.20
2019-01-23T01:19:42.847Z,35.30
2019-01-23T01:22:10.419Z,35.48
2019-01-23T01:24:38.026Z,37.85
2019-01-23T01:27:05.685Z,34.95
2019-01-23T01:29:33.216Z,37.78
2019-01-23T01:32:00.697Z,38.25
2019-01-23T01:34:28.258Z,38.55
2019-01-23T01:36:55.860Z,37.25
2019-01-23T01:39:23.371Z,37.50
2019-01-23T01:41:50.859Z,37.23
2019-01-23T01:44:18.431Z,38.65
2019-01-23T01:46:46.037Z,34.55
2019-01-23T01:49:13.660Z,34.55
2019-01-23T01:51:41.164Z,37.93
2019-01-23T01:54:08.750Z,37.60
2019-01-23T01:56:36.285Z,36.08
2019-01-23T01:59:03.937Z,36.08
2019-01-23T02:01:31.514Z,35.68
2019-01-23T02:03:59.286Z,37.63
2019-01-23T02:06:26.767Z,34.60
2019-01-23T02:08:54.325Z,35.80
2019-01-23T02:11:21.849Z,35.80
2019-01-23T02:13:49.470Z,35.40
2019-01-23T02:16:17.029Z,36.50
2019-01-23T02:18:44.507Z,38.83
2019-01-23T02:21:12.035Z,37.95
2019-01-23T02:23:39.720Z,35.58
2019-01-23T02:26:07.331Z,38.65
2019-01-23T02:28:34.827Z,37.25
2019-01-23T02:31:02.318Z,39.55
2019-01-23T02:33:29.940Z,36.75
2019-01-23T02:35:57.516Z,37.45
2019-01-23T02:38:25.225Z,38.28
2019-01-23T02:40:52.702Z,39.92
2019-01-23T02:43:20.251Z,36.42
2019-01-23T02:45:47.747Z,38.53
2019-01-23T02:48:15.217Z,40.15
2019-01-23T02:50:42.761Z,38.45
2019-01-23T02:53:10.383Z,37.45
2019-01-23T02:55:37.917Z,35.48
2019-01-23T02:58:05.419Z,39.60
2019-01-23T03:00:32.990Z,38.08
2019-01-23T03:03:00.505Z,39.35
2019-01-23T03:05:28.144Z,39.73
2019-01-23T03:07:55.731Z,39.65
2019-01-23T03:10:23.267Z,39.98
2019-01-23T03:12:50.746Z,43.17
2019-01-23T03:15:18.349Z,41.33
2019-01-23T03:17:45.857Z,40.50
2019-01-23T03:20:14.794Z,38.17
2019-01-23T03:22:42.312Z,39.95
2019-01-23T03:25:10.878Z,39.65
2019-01-23T03:27:38.420Z,41.90
2019-01-23T03:30:07.728Z,39.03
2019-01-23T03:32:35.260Z,38.23
2019-01-23T03:35:02.995Z,39.83
2019-01-23T03:37:30.630Z,41.37
2019-01-23T03:39:58.184Z,39.30
2019-01-23T03:42:25.712Z,41.25
2019-01-23T03:44:53.193Z,41.77
2019-01-23T03:47:20.820Z,39.92
2019-01-23T03:49:48.393Z,41.80
2019-01-23T03:52:15.935Z,40.88
2019-01-23T03:54:43.441Z,42.43
2019-01-23T03:57:11.001Z,41.20
2019-01-23T03:59:38.647Z,41.08
2019-01-23T04:02:06.199Z,42.73
2019-01-23T04:04:35.309Z,39.70
2019-01-23T04:07:02.874Z,40.33
2019-01-23T04:09:30.571Z,39.35
2019-01-23T04:11:58.060Z,39.33
2019-01-23T04:14:25.537Z,41.42
2019-01-23T04:16:53.061Z,38.53
2019-01-23T04:19:20.576Z,37.83
2019-01-23T04:21:48.080Z,39.63
2019-01-23T04:24:15.714Z,39.58
2019-01-23T04:26:43.308Z,39.75
2019-01-23T04:29:10.775Z,41.37
2019-01-23T04:31:38.372Z,40.20
2019-01-23T04:34:05.895Z,39.75
2019-01-23T04:36:33.392Z,39.30
2019-01-23T04:39:00.924Z,42.70
2019-01-23T04:41:28.472Z,40.20
2019-01-23T04:43:56.142Z,41.85
2019-01-23T04:46:23.746Z,42.43
2019-01-23T04:48:51.338Z,42.78
2019-01-23T04:51:32.642Z,38.67
2019-01-23T04:54:00.337Z,33.28
2019-01-23T04:56:27.994Z,34.45
2019-01-23T04:58:55.511Z,31.60
2019-01-23T05:01:23.171Z,31.93
2019-01-23T05:03:50.782Z,34.03
2019-01-23T05:06:18.450Z,37.40
2019-01-23T05:08:46.030Z,35.50
2019-01-23T05:11:13.545Z,35.08
2019-01-23T05:13:41.142Z,34.05
2019-01-23T05:16:08.663Z,35.85
2019-01-23T05:18:36.250Z,33.28
2019-01-23T05:21:03.833Z,33.35
2019-01-23T05:23:31.279Z,31.07
2019-01-23T05:25:58.971Z,29.87
2019-01-23T05:28:26.568Z,29.48
2019-01-23T05:30:54.151Z,30.97
2019-01-23T05:33:21.661Z,29.60
2019-01-23T05:35:49.256Z,28.90
2019-01-23T05:38:16.745Z,31.90
2019-01-23T05:40:44.471Z,29.57
2019-01-23T05:43:11.949Z,28.07
2019-01-23T05:45:39.583Z,27.75
2019-01-23T05:48:07.188Z,29.45
2019-01-23T05:50:34.748Z,26.00
2019-01-23T05:53:02.375Z,25.55
2019-01-23T05:55:29.977Z,25.27
2019-01-23T05:57:57.520Z,27.05
2019-01-23T06:00:25.080Z,29.20
2019-01-23T06:02:52.682Z,27.90
2019-01-23T06:05:20.143Z,27.55
2019-01-23T06:07:47.604Z,25.92
2019-01-23T06:10:15.741Z,28.30
2019-01-23T06:12:43.212Z,25.10
2019-01-23T06:15:11.870Z,26.37
2019-01-23T06:17:39.395Z,27.60
2019-01-23T06:20:08.304Z,27.85
2019-01-23T06:22:35.796Z,27.50
2019-01-23T06:25:03.310Z,26.15
2019-01-23T06:27:30.781Z,25.82
2019-01-23T06:29:58.302Z,27.05
2019-01-23T06:32:25.760Z,27.17
2019-01-23T06:34:53.237Z,26.73
2019-01-23T06:37:20.843Z,26.00
2019-01-23T06:39:48.346Z,28.77
2019-01-23T06:42:15.811Z,28.15
2019-01-23T06:44:43.300Z,27.00
2019-01-23T06:47:10.779Z,27.15
2019-01-23T06:49:38.275Z,27.52
2019-01-23T06:52:05.764Z,27.75
2019-01-23T06:54:33.253Z,25.90
2019-01-23T06:57:00.719Z,27.60
2019-01-23T06:59:28.224Z,25.43
2019-01-23T07:01:55.694Z,26.68
2019-01-23T07:04:23.173Z,28.75
2019-01-23T07:06:50.678Z,26.85
2019-01-23T07:09:18.139Z,28.98
2019-01-23T07:11:45.641Z,26.02
2019-01-23T07:14:13.112Z,26.65
2019-01-23T07:16:40.591Z,30.88
2019-01-23T07:19:08.075Z,29.85
2019-01-23T07:21:35.546Z,28.80
2019-01-23T07:24:03.090Z,27.48
2019-01-23T07:26:30.616Z,27.67
2019-01-23T07:28:58.083Z,28.47
2019-01-23T07:31:25.552Z,30.68
2019-01-23T07:33:53.060Z,31.05
2019-01-23T07:36:20.526Z,27.75
2019-01-23T07:38:47.995Z,26.95
2019-01-23T07:41:15.517Z,28.52
2019-01-23T07:43:42.997Z,28.80
2019-01-23T07:46:11.616Z,26.02
2019-01-23T07:48:44.156Z,24.15
2019-01-23T07:51:11.829Z,26.82
2019-01-23T07:53:39.308Z,26.65
2019-01-23T07:56:06.821Z,26.48
2019-01-23T07:58:34.294Z,24.65
2019-01-23T08:01:01.779Z,25.72
2019-01-23T08:03:29.283Z,26.52
2019-01-23T08:05:56.765Z,27.70
2019-01-23T08:08:24.323Z,25.55
2019-01-23T08:10:51.821Z,26.25
2019-01-23T08:13:19.387Z,26.00
2019-01-23T08:15:46.874Z,27.25
2019-01-23T08:18:14.405Z,28.40
2019-01-23T08:20:41.948Z,30.52
2019-01-23T08:23:09.739Z,28.60
2019-01-23T08:25:37.287Z,29.35
2019-01-23T08:28:04.871Z,26.97
2019-01-23T08:30:38.749Z,27.93
2019-01-23T08:33:01.743Z,30.45
2019-01-23T08:35:29.232Z,29.55
2019-01-23T08:37:56.779Z,28.15
2019-01-23T08:40:24.312Z,27.07
2019-01-23T08:42:51.803Z,30.37
2019-01-23T08:45:19.368Z,29.92
2019-01-23T08:47:46.985Z,28.92
2019-01-23T08:50:15.937Z,28.62
2019-01-23T08:52:43.425Z,30.60
2019-01-23T08:55:10.957Z,30.08
2019-01-23T08:57:38.447Z,30.85
2019-01-23T09:00:07.399Z,27.77
2019-01-23T09:02:34.912Z,30.45
2019-01-23T09:05:02.390Z,29.32
2019-01-23T09:07:29.867Z,29.65
2019-01-23T09:09:57.442Z,28.62
2019-01-23T09:12:26.414Z,30.20
2019-01-23T09:14:53.962Z,29.20
2019-01-23T09:17:21.482Z,28.62
2019-01-23T09:19:48.954Z,28.40
2019-01-23T09:22:16.575Z,30.15
2019-01-23T09:24:44.085Z,29.20
2019-01-23T09:27:11.572Z,29.45
2019-01-23T09:29:39.059Z,29.32
2019-01-23T09:32:08.084Z,28.92
2019-01-23T09:34:40.035Z,28.17
2019-01-23T09:37:11.794Z,26.77
2019-01-23T09:39:40.766Z,27.75
2019-01-23T09:42:12.410Z,30.95
2019-01-23T09:44:47.408Z,31.65
2019-01-23T09:47:16.357Z,29.12
2019-01-23T09:50:01.955Z,30.48
2019-01-23T09:52:30.965Z,30.45
2019-01-23T09:54:58.449Z,29.37
2019-01-23T09:57:26.887Z,26.85
2019-01-23T09:59:54.368Z,29.75
2019-01-23T10:02:21.845Z,30.65
2019-01-23T10:04:49.354Z,28.65
2019-01-23T10:07:16.852Z,28.20
2019-01-23T10:09:55.176Z,31.27
2019-01-23T10:12:22.176Z,30.17
2019-01-23T10:14:49.690Z,28.75
2019-01-23T10:17:17.160Z,29.67
2019-01-23T10:19:44.651Z,28.05
2019-01-23T10:22:12.142Z,29.90
2019-01-23T10:24:39.810Z,29.75
2019-01-23T10:27:07.263Z,30.57
2019-01-23T10:29:34.762Z,30.57
2019-01-23T10:32:02.250Z,27.58
2019-01-23T10:34:29.720Z,29.75
2019-01-23T10:36:57.217Z,29.47
2019-01-23T10:39:24.687Z,29.00
2019-01-23T10:41:52.160Z,29.90
2019-01-23T10:44:19.661Z,30.02
2019-01-23T10:46:47.188Z,31.23
2019-01-23T10:49:14.736Z,31.40
2019-01-23T10:51:42.310Z,30.50
2019-01-23T10:54:09.963Z,32.03
2019-01-23T10:56:37.470Z,30.77
2019-01-23T10:59:04.974Z,28.47
2019-01-23T11:01:32.504Z,31.43
2019-01-23T11:04:00.050Z,28.73
2019-01-23T11:06:27.671Z,30.77
2019-01-23T11:08:55.137Z,32.53
2019-01-23T11:11:22.619Z,28.92
2019-01-23T11:13:50.126Z,28.05
2019-01-23T11:16:17.616Z,28.32
2019-01-23T11:18:45.228Z,31.40
2019-01-23T11:21:12.736Z,30.92
2019-01-23T11:23:40.220Z,28.65
2019-01-23T11:26:07.689Z,30.43
2019-01-23T11:28:35.268Z,27.15
2019-01-23T11:31:02.750Z,28.00
2019-01-23T11:33:30.296Z,28.85
2019-01-23T11:35:57.874Z,32.25
2019-01-23T11:38:25.342Z,29.18
2019-01-23T11:40:52.820Z,30.08
2019-01-23T11:43:20.341Z,29.20
2019-01-23T11:45:47.820Z,27.30
2019-01-23T11:48:15.363Z,28.23
2019-01-23T11:50:42.868Z,28.77
2019-01-23T11:53:10.335Z,26.83
2019-01-23T11:55:37.873Z,27.70
2019-01-23T11:58:05.554Z,29.48
2019-01-23T12:00:34.893Z,28.10
2019-01-23T12:03:02.401Z,29.33
2019-01-23T12:05:29.884Z,28.70
2019-01-23T12:07:57.412Z,28.97
2019-01-23T12:10:24.907Z,30.87
2019-01-23T12:12:52.394Z,29.82
2019-01-23T12:15:20.971Z,29.00
2019-01-23T12:17:48.576Z,30.00
2019-01-23T12:20:16.239Z,27.47
2019-01-23T12:22:43.726Z,30.60
2019-01-23T12:25:11.765Z,29.47
2019-01-23T12:27:39.262Z,28.70
2019-01-23T12:30:08.185Z,27.83
2019-01-23T12:32:35.701Z,28.00
2019-01-23T12:35:03.865Z,27.17
2019-01-23T12:37:31.443Z,28.40
2019-01-23T12:39:58.936Z,26.10
2019-01-23T12:42:26.504Z,25.10
2019-01-23T12:44:53.999Z,27.87
2019-01-23T12:47:21.500Z,26.10
2019-01-23T12:49:48.967Z,26.60
2019-01-23T12:52:16.460Z,29.10
2019-01-23T12:54:43.953Z,26.57
2019-01-23T12:57:11.463Z,26.90
2019-01-23T12:59:38.932Z,26.83
2019-01-23T13:02:09.792Z,27.60
2019-01-23T13:04:35.579Z,26.87
2019-01-23T13:07:03.072Z,28.45
2019-01-23T13:09:30.546Z,28.25
2019-01-23T13:11:58.059Z,26.17
2019-01-23T13:14:25.540Z,27.20
2019-01-23T13:16:53.003Z,28.43
2019-01-23T13:19:20.523Z,25.65
2019-01-23T13:21:48.006Z,28.50
2019-01-23T13:24:15.491Z,28.73
2019-01-23T13:26:43.017Z,28.23
2019-01-23T13:29:10.507Z,28.57
2019-01-23T13:31:38.003Z,27.60
2019-01-23T13:34:05.502Z,27.93
2019-01-23T13:36:32.990Z,27.27
2019-01-23T13:39:00.514Z,26.87
2019-01-23T13:41:27.984Z,28.23
2019-01-23T13:43:55.526Z,28.23
2019-01-23T13:46:23.106Z,29.05
2019-01-23T13:48:50.587Z,31.55
2019-01-23T13:51:18.062Z,29.02
2019-01-23T13:53:45.581Z,29.02
2019-01-23T13:56:13.057Z,31.80
2019-01-23T13:58:41.959Z,34.20
2019-01-23T14:01:09.789Z,32.47
2019-01-23T14:03:37.244Z,32.87
2019-01-23T14:06:04.770Z,31.20
2019-01-23T14:08:32.278Z,31.33
2019-01-23T14:10:59.767Z,32.67
2019-01-23T14:13:27.266Z,32.15
2019-01-23T14:15:54.786Z,33.25
2019-01-23T14:18:22.341Z,35.13
2019-01-23T14:20:49.893Z,32.70
2019-01-23T14:23:17.438Z,35.65
2019-01-23T14:25:44.910Z,32.40
2019-01-23T14:28:12.463Z,31.25
2019-01-23T14:30:41.076Z,34.45
2019-01-23T14:33:08.624Z,34.80
2019-01-23T14:35:36.803Z,33.05
2019-01-23T14:38:04.808Z,33.05
2019-01-23T14:40:32.367Z,35.83
2019-01-23T14:42:59.957Z,34.92
2019-01-23T14:45:27.560Z,31.93
2019-01-23T14:47:55.026Z,34.60
2019-01-23T14:50:22.520Z,35.80
2019-01-23T14:52:50.152Z,32.95
2019-01-23T14:55:17.615Z,32.20
2019-01-23T14:57:45.268Z,32.88
2019-01-23T15:00:14.342Z,33.95
2019-01-23T15:02:41.810Z,32.15
2019-01-23T15:05:09.403Z,32.67
2019-01-23T15:07:36.975Z,34.88
2019-01-23T15:10:05.939Z,30.75
2019-01-23T15:12:33.434Z,34.75
2019-01-23T15:15:00.916Z,34.40
2019-01-23T15:17:28.475Z,35.90
2019-01-23T15:19:55.986Z,33.02
2019-01-23T15:22:23.480Z,33.63
2019-01-23T15:24:51.021Z,32.15
2019-01-23T15:27:18.518Z,34.58
2019-01-23T15:29:45.990Z,33.23
2019-01-23T15:32:17.480Z,31.45
2019-01-23T15:34:42.653Z,33.50
2019-01-23T15:37:10.176Z,31.62
2019-01-23T15:39:37.653Z,32.88
2019-01-23T15:42:05.175Z,30.30
2019-01-23T15:44:32.657Z,33.48
2019-01-23T15:47:00.148Z,29.30
2019-01-23T15:49:27.782Z,35.35
2019-01-23T15:51:55.246Z,31.00
2019-01-23T15:54:24.326Z,31.70
2019-01-23T15:56:51.888Z,31.17
2019-01-23T15:59:19.386Z,34.33
2019-01-23T16:01:46.934Z,33.15
2019-01-23T16:04:14.931Z,31.30
2019-01-23T16:06:42.412Z,33.70
2019-01-23T16:09:09.884Z,32.93
2019-01-23T16:11:37.407Z,33.42
2019-01-23T16:14:04.888Z,31.55
2019-01-23T16:16:32.371Z,31.68
2019-01-23T16:18:59.890Z,32.08
2019-01-23T16:21:27.377Z,33.73
2019-01-23T16:23:54.934Z,33.95
2019-01-23T16:26:22.444Z,31.65
2019-01-23T16:28:50.003Z,32.65
2019-01-23T16:31:17.493Z,33.67
2019-01-23T16:33:45.015Z,31.68
2019-01-23T16:36:12.501Z,32.50
2019-01-23T16:38:39.992Z,34.53
2019-01-23T16:41:07.492Z,33.45
2019-01-23T16:43:34.984Z,33.65
2019-01-23T16:46:02.507Z,32.85
2019-01-23T16:48:30.018Z,35.08
2019-01-23T16:50:57.534Z,32.10
2019-01-23T16:53:25.083Z,32.20
2019-01-23T16:55:52.598Z,30.65
2019-01-23T16:58:20.155Z,32.13
2019-01-23T17:00:47.717Z,33.88
2019-01-23T17:03:15.290Z,32.83
2019-01-23T17:05:42.857Z,33.88
2019-01-23T17:08:10.453Z,32.40
2019-01-23T17:10:38.032Z,31.60
2019-01-23T17:13:05.622Z,31.65
2019-01-23T17:15:36.773Z,33.28
2019-01-23T17:18:04.712Z,33.50
2019-01-23T17:20:33.618Z,32.58
2019-01-23T17:23:01.111Z,32.28
2019-01-23T17:25:28.631Z,31.52
2019-01-23T17:27:56.187Z,34.60
2019-01-23T17:30:23.667Z,31.90
2019-01-23T17:32:51.206Z,31.90
2019-01-23T17:35:19.534Z,32.88
2019-01-23T17:37:47.102Z,32.35
2019-01-23T17:40:18.403Z,33.28
2019-01-23T17:42:46.184Z,30.20
2019-01-23T17:45:14.888Z,30.75
2019-01-23T17:47:42.387Z,34.53
2019-01-23T17:50:11.412Z,30.32
2019-01-23T17:52:38.904Z,32.95
2019-01-23T17:55:07.938Z,32.13
2019-01-23T17:57:35.412Z,31.07
2019-01-23T18:00:03.181Z,30.85
2019-01-23T18:02:30.690Z,30.10
2019-01-23T18:04:58.187Z,29.70
2019-01-23T18:07:25.748Z,27.32
2019-01-23T18:09:53.466Z,29.37
2019-01-23T18:12:20.942Z,26.00
2019-01-23T18:14:49.191Z,29.05
2019-01-23T18:17:16.835Z,29.37
2019-01-23T18:19:44.401Z,31.23
2019-01-23T18:22:11.862Z,28.67
2019-01-23T18:24:39.468Z,31.25
2019-01-23T18:27:07.025Z,31.20
2019-01-23T18:29:38.606Z,29.27
2019-01-23T18:32:06.121Z,31.55
2019-01-23T18:34:47.182Z,31.80
2019-01-23T18:37:16.169Z,32.08
2019-01-23T18:39:48.008Z,31.73
2019-01-23T18:42:33.462Z,34.78
2019-01-23T18:45:02.620Z,34.30
2019-01-23T18:47:37.795Z,35.28
2019-01-23T18:50:12.948Z,33.10
2019-01-23T18:52:40.463Z,33.50
2019-01-23T18:55:09.639Z,33.78
2019-01-23T18:57:37.213Z,33.33
2019-01-23T19:00:06.281Z,31.80
2019-01-23T19:02:33.827Z,31.75
2019-01-23T19:05:01.395Z,33.38
2019-01-23T19:07:28.929Z,32.48
2019-01-23T19:09:56.414Z,31.87
2019-01-23T19:12:23.978Z,34.13
2019-01-23T19:14:51.612Z,32.93
2019-01-23T19:17:19.113Z,34.50
2019-01-23T19:19:46.728Z,33.65
2019-01-23T19:22:14.300Z,32.40
2019-01-23T19:24:41.794Z,34.67
2019-01-23T19:27:09.418Z,32.28
2019-01-23T19:29:36.923Z,30.20
2019-01-23T19:32:05.054Z,32.55
2019-01-23T19:34:32.545Z,30.97
2019-01-23T19:37:00.929Z,32.28
2019-01-23T19:39:28.376Z,29.00
2019-01-23T19:41:55.939Z,29.80
2019-01-23T19:44:23.413Z,30.27
2019-01-23T19:46:50.946Z,29.95
2019-01-23T19:49:18.602Z,31.90
2019-01-23T19:51:46.267Z,31.48
2019-01-23T19:54:13.899Z,31.30
2019-01-23T19:56:41.483Z,30.57
2019-01-23T19:59:08.981Z,30.30
2019-01-23T20:01:36.527Z,34.15
2019-01-23T20:04:04.215Z,31.68
2019-01-23T20:06:31.786Z,33.23
2019-01-23T20:09:00.681Z,34.53
2019-01-23T20:11:28.265Z,35.73
2019-01-23T20:13:55.774Z,32.75
2019-01-23T20:16:23.423Z,35.10
2019-01-23T20:18:50.864Z,35.60
2019-01-23T20:21:18.380Z,36.53
2019-01-23T20:23:45.973Z,36.30
2019-01-23T20:26:13.550Z,36.98
2019-01-23T20:28:41.834Z,36.77
2019-01-23T20:31:09.383Z,37.85
2019-01-23T20:33:36.980Z,36.55
2019-01-23T20:36:04.601Z,36.45
2019-01-23T20:38:32.228Z,36.93
2019-01-23T20:40:59.814Z,38.33
2019-01-23T20:43:27.348Z,34.78
2019-01-23T20:45:54.903Z,36.95
2019-01-23T20:48:22.457Z,36.65
2019-01-23T20:50:50.053Z,34.88
2019-01-23T20:53:17.484Z,33.80
2019-01-23T20:55:45.025Z,34.30
2019-01-23T20:58:13.026Z,35.55
2019-01-23T21:00:40.728Z,31.90
2019-01-23T21:03:08.495Z,35.83
2019-01-23T21:05:36.060Z,35.33
2019-01-23T21:08:03.920Z,34.20
2019-01-23T21:10:31.402Z,34.78
2019-01-23T21:12:59.150Z,35.48
2019-01-23T21:15:27.994Z,33.60
2019-01-23T21:17:55.586Z,35.13
2019-01-23T21:20:23.184Z,33.65
2019-01-23T21:22:50.825Z,34.75
2019-01-23T21:25:18.398Z,33.67
2019-01-23T21:27:46.009Z,31.97
2019-01-23T21:30:14.966Z,31.97
2019-01-23T21:32:42.533Z,32.50
2019-01-23T21:35:10.540Z,34.03
2019-01-23T21:37:38.125Z,32.73
2019-01-23T21:40:07.158Z,32.70
2019-01-23T21:42:34.720Z,35.35
2019-01-23T21:45:02.345Z,33.75
2019-01-23T21:47:29.927Z,36.80
2019-01-23T21:49:57.533Z,33.23
2019-01-23T21:52:25.005Z,33.45
2019-01-23T21:54:52.543Z,34.95
2019-01-23T21:57:20.158Z,33.45
2019-01-23T21:59:47.836Z,32.25
2019-01-23T22:02:15.319Z,32.30
2019-01-23T22:04:42.797Z,35.98
2019-01-23T22:07:10.364Z,34.75
2019-01-23T22:09:38.019Z,35.10
2019-01-23T22:12:05.491Z,35.25
2019-01-23T22:14:32.988Z,37.10
2019-01-23T22:17:02.157Z,37.48
2019-01-23T22:19:29.644Z,37.55
2019-01-23T22:21:57.164Z,39.10
2019-01-23T22:24:24.696Z,39.10
2019-01-23T22:26:52.177Z,37.80
2019-01-23T22:29:19.664Z,36.23
2019-01-23T22:31:47.264Z,37.63
2019-01-23T22:34:14.753Z,36.73
2019-01-23T22:36:42.280Z,35.33
2019-01-23T22:39:09.880Z,36.42
2019-01-23T22:41:37.364Z,35.08
2019-01-23T22:44:04.922Z,34.23
2019-01-23T22:46:32.434Z,34.60
2019-01-23T22:48:59.929Z,37.23
2019-01-23T22:51:27.509Z,35.68
2019-01-23T22:53:55.025Z,38.60
2019-01-23T22:56:22.514Z,38.45
2019-01-23T22:58:50.063Z,39.73
2019-01-23T23:01:19.491Z,37.63
2019-01-23T23:03:46.965Z,39.73
2019-01-23T23:06:14.481Z,41.37
2019-01-23T23:08:41.978Z,41.00
2019-01-23T23:11:09.464Z,37.90
2019-01-23T23:13:37.029Z,40.12
2019-01-23T23:16:04.530Z,39.53
2019-01-23T23:18:32.094Z,39.25
2019-01-23T23:20:59.551Z,40.17
2019-01-23T23:23:27.115Z,42.08
2019-01-23T23:25:54.557Z,40.90
2019-01-23T23:28:25.920Z,41.15
2019-01-23T23:30:51.197Z,41.58
2019-01-23T23:33:18.709Z,42.90
2019-01-23T23:35:46.149Z,41.02
2019-01-23T23:38:13.660Z,41.35
2019-01-23T23:40:41.216Z,41.45
2019-01-23T23:43:08.705Z,41.00
2019-01-23T23:45:36.248Z,42.30
2019-01-23T23:48:04.220Z,43.78
2019-01-23T23:50:31.691Z,41.25
2019-01-23T23:52:59.218Z,38.45
2019-01-23T23:55:26.732Z,42.73
2019-01-23T23:57:54.210Z,37.83
